createdAt,value
2018-02-09T00:00:13.872Z,67.43
2018-02-09T00:02:41.464Z,76.67
2018-02-09T00:05:09.796Z,89.13
2018-02-09T00:07:37.384Z,76.73
2018-02-09T00:10:04.962Z,88.53
2018-02-09T00:12:32.544Z,96.27
2018-02-09T00:15:00.115Z,85.03
2018-02-09T00:17:27.697Z,86.57
2018-02-09T00:19:55.260Z,93.27
2018-02-09T00:22:34.527Z,91.10
2018-02-09T00:25:02.852Z,93.50
2018-02-09T00:27:30.416Z,69.30
2018-02-09T00:29:58.009Z,82.93
2018-02-09T00:32:25.572Z,81.13
2018-02-09T00:34:53.924Z,84.50
2018-02-09T00:37:21.490Z,86.33
2018-02-09T00:39:49.075Z,84.27
2018-02-09T00:42:16.645Z,83.27
2018-02-09T00:44:44.228Z,72.77
2018-02-09T00:47:11.797Z,80.67
2018-02-09T00:49:39.397Z,75.23
2018-02-09T00:52:07.731Z,83.07
2018-02-09T00:54:35.325Z,87.80
2018-02-09T00:57:02.892Z,97.60
2018-02-09T00:59:31.251Z,96.07
2018-02-09T01:01:58.831Z,78.10
2018-02-09T01:04:27.211Z,92.13
2018-02-09T01:06:54.772Z,84.07
2018-02-09T01:09:22.363Z,83.80
2018-02-09T01:11:49.929Z,101.53
2018-02-09T01:14:17.508Z,85.40
2018-02-09T01:16:45.068Z,91.80
2018-02-09T01:19:12.628Z,94.53
2018-02-09T01:21:40.981Z,84.30
2018-02-09T01:24:08.551Z,90.53
2018-02-09T01:26:36.140Z,77.03
2018-02-09T01:29:03.726Z,81.40
2018-02-09T01:31:31.309Z,85.07
2018-02-09T01:33:58.873Z,90.93
2018-02-09T01:36:26.474Z,92.53
2018-02-09T01:38:54.046Z,96.23
2018-02-09T01:41:21.641Z,91.97
2018-02-09T01:43:49.209Z,94.50
2018-02-09T01:46:16.789Z,82.43
2018-02-09T01:48:44.360Z,81.03
2018-02-09T01:51:11.940Z,90.70
2018-02-09T01:53:39.512Z,94.40
2018-02-09T01:56:07.102Z,93.93
2018-02-09T01:58:35.448Z,101.73
2018-02-09T02:01:03.797Z,82.40
2018-02-09T02:03:31.373Z,86.43
2018-02-09T02:05:59.734Z,81.23
2018-02-09T02:08:27.305Z,78.53
2018-02-09T02:10:54.897Z,81.67
2018-02-09T02:13:22.467Z,82.47
2018-02-09T02:15:50.085Z,83.73
2018-02-09T02:18:17.661Z,77.93
2018-02-09T02:20:45.268Z,92.03
2018-02-09T02:23:12.829Z,89.13
2018-02-09T02:25:40.400Z,86.07
2018-02-09T02:28:09.487Z,84.83
2018-02-09T02:30:37.054Z,88.07
2018-02-09T02:33:04.684Z,89.30
2018-02-09T02:35:32.242Z,87.63
2018-02-09T02:37:59.823Z,80.33
2018-02-09T02:40:27.380Z,85.03
2018-02-09T02:42:54.974Z,84.33
2018-02-09T02:45:22.553Z,83.90
2018-02-09T02:47:50.145Z,95.50
2018-02-09T02:50:17.704Z,91.73
2018-02-09T02:52:45.306Z,94.23
2018-02-09T02:55:13.645Z,87.30
2018-02-09T02:57:41.228Z,83.70
2018-02-09T03:00:08.834Z,82.43
2018-02-09T03:02:36.416Z,90.07
2018-02-09T03:05:03.980Z,88.77
2018-02-09T03:07:31.567Z,90.77
2018-02-09T03:09:59.137Z,91.77
2018-02-09T03:12:26.728Z,101.67
2018-02-09T03:14:54.305Z,93.77
2018-02-09T03:17:21.894Z,88.43
2018-02-09T03:19:49.465Z,94.77
2018-02-09T03:22:18.389Z,89.57
2018-02-09T03:24:45.961Z,85.43
2018-02-09T03:27:13.544Z,95.37
2018-02-09T03:29:42.137Z,85.47
2018-02-09T03:32:09.744Z,90.70
2018-02-09T03:34:37.332Z,89.40
2018-02-09T03:37:04.891Z,90.60
2018-02-09T03:39:32.504Z,102.23
2018-02-09T03:42:00.070Z,89.07
2018-02-09T03:44:28.416Z,91.93
2018-02-09T03:46:56.103Z,106.87
2018-02-09T03:49:24.464Z,123.40
2018-02-09T03:51:52.047Z,118.93
2018-02-09T03:54:20.403Z,100.33
2018-02-09T03:56:47.963Z,86.93
2018-02-09T03:59:15.550Z,99.23
2018-02-09T04:01:43.881Z,100.47
2018-02-09T04:04:11.473Z,102.83
2018-02-09T04:06:39.049Z,94.90
2018-02-09T04:09:06.658Z,90.23
2018-02-09T04:11:34.227Z,97.70
2018-02-09T04:14:01.825Z,100.80
2018-02-09T04:16:30.166Z,102.33
2018-02-09T04:18:57.767Z,101.23
2018-02-09T04:21:25.328Z,95.30
2018-02-09T04:23:52.913Z,95.53
2018-02-09T04:26:20.481Z,106.73
2018-02-09T04:28:48.113Z,90.27
2018-02-09T04:31:15.674Z,95.73
2018-02-09T04:33:43.242Z,106.33
2018-02-09T04:36:10.825Z,88.03
2018-02-09T04:38:38.384Z,125.57
2018-02-09T04:41:05.976Z,91.80
2018-02-09T04:43:34.313Z,106.77
2018-02-09T04:46:01.897Z,100.80
2018-02-09T04:48:29.469Z,105.47
2018-02-09T04:50:57.061Z,102.47
2018-02-09T04:53:24.622Z,84.70
2018-02-09T04:55:52.218Z,91.03
2018-02-09T04:58:19.795Z,88.17
2018-02-09T05:00:47.380Z,96.60
2018-02-09T05:03:14.949Z,96.17
2018-02-09T05:05:42.547Z,96.27
2018-02-09T05:08:10.118Z,104.73
2018-02-09T05:10:37.709Z,99.37
2018-02-09T05:13:05.282Z,93.43
2018-02-09T05:15:32.882Z,99.57
2018-02-09T05:18:00.449Z,96.27
2018-02-09T05:20:28.817Z,100.20
2018-02-09T05:22:56.389Z,95.90
2018-02-09T05:25:23.981Z,101.43
2018-02-09T05:27:52.308Z,92.13
2018-02-09T05:30:19.905Z,94.20
2018-02-09T05:32:47.473Z,90.77
2018-02-09T05:35:15.844Z,94.40
2018-02-09T05:37:43.410Z,92.00
2018-02-09T05:40:11.898Z,92.13
2018-02-09T05:42:39.493Z,95.80
2018-02-09T05:45:07.097Z,97.00
2018-02-09T05:47:34.680Z,104.10
2018-02-09T05:50:03.008Z,93.77
2018-02-09T05:52:30.600Z,99.03
2018-02-09T05:54:59.816Z,97.77
2018-02-09T05:57:29.101Z,104.10
2018-02-09T05:59:57.445Z,103.70
2018-02-09T06:02:25.028Z,94.77
2018-02-09T06:04:52.605Z,109.20
2018-02-09T06:07:20.184Z,99.53
2018-02-09T06:09:47.740Z,94.67
2018-02-09T06:12:15.333Z,89.93
2018-02-09T06:14:42.902Z,104.30
2018-02-09T06:17:10.488Z,88.63
2018-02-09T06:19:38.048Z,93.80
2018-02-09T06:22:06.409Z,88.30
2018-02-09T06:24:33.993Z,90.03
2018-02-09T06:27:02.341Z,97.37
2018-02-09T06:29:29.919Z,88.50
2018-02-09T06:31:57.503Z,94.13
2018-02-09T06:34:25.075Z,98.33
2018-02-09T06:36:52.664Z,96.43
2018-02-09T06:39:20.232Z,93.20
2018-02-09T06:41:47.825Z,96.57
2018-02-09T06:44:15.417Z,94.77
2018-02-09T06:46:42.981Z,96.03
2018-02-09T06:49:10.595Z,91.03
2018-02-09T06:51:38.927Z,93.23
2018-02-09T06:54:06.521Z,97.90
2018-02-09T06:56:34.089Z,93.53
2018-02-09T06:59:01.688Z,94.00
2018-02-09T07:01:29.252Z,94.70
2018-02-09T07:03:56.836Z,80.60
2018-02-09T07:06:24.401Z,95.00
2018-02-09T07:08:51.993Z,91.93
2018-02-09T07:11:19.809Z,99.73
2018-02-09T07:13:47.623Z,92.47
2018-02-09T07:16:15.202Z,103.23
2018-02-09T07:18:43.573Z,117.77
2018-02-09T07:21:11.192Z,111.77
2018-02-09T07:23:38.772Z,95.67
2018-02-09T07:26:07.104Z,106.10
2018-02-09T07:28:34.693Z,96.50
2018-02-09T07:31:02.266Z,100.07
2018-02-09T07:33:30.621Z,94.40
2018-02-09T07:35:58.198Z,99.50
2018-02-09T07:38:26.768Z,100.93
2018-02-09T07:40:54.340Z,97.60
2018-02-09T07:43:22.320Z,103.67
2018-02-09T07:45:50.116Z,121.37
2018-02-09T07:48:17.698Z,110.40
2018-02-09T07:50:45.276Z,96.60
2018-02-09T07:53:12.865Z,89.30
2018-02-09T07:55:40.427Z,90.73
2018-02-09T07:58:07.988Z,96.63
2018-02-09T08:00:35.573Z,88.77
2018-02-09T08:03:03.192Z,85.63
2018-02-09T08:05:31.550Z,89.60
2018-02-09T08:07:59.117Z,92.07
2018-02-09T08:10:26.712Z,97.37
2018-02-09T08:12:54.278Z,78.13
2018-02-09T08:15:21.865Z,86.23
2018-02-09T08:17:50.208Z,86.90
2018-02-09T08:20:17.797Z,86.57
2018-02-09T08:22:45.376Z,87.60
2018-02-09T08:25:12.965Z,80.77
2018-02-09T08:27:40.536Z,90.93
2018-02-09T08:30:08.177Z,96.97
2018-02-09T08:32:35.728Z,92.73
2018-02-09T08:35:03.341Z,84.43
2018-02-09T08:37:30.897Z,89.47
2018-02-09T08:39:58.479Z,90.87
2018-02-09T08:42:26.086Z,84.00
2018-02-09T08:44:53.673Z,90.83
2018-02-09T08:47:21.247Z,84.37
2018-02-09T08:49:48.836Z,101.57
2018-02-09T08:52:16.401Z,95.53
2018-02-09T08:54:44.008Z,115.93
2018-02-09T08:57:11.572Z,89.20
2018-02-09T08:59:39.162Z,74.77
2018-02-09T09:02:06.784Z,76.33
2018-02-09T09:04:34.388Z,81.43
2018-02-09T09:07:01.961Z,86.93
2018-02-09T09:09:30.952Z,57.10
2018-02-09T09:11:59.307Z,53.77
2018-02-09T09:14:26.893Z,44.47
2018-02-09T09:16:54.494Z,51.17
2018-02-09T09:19:22.053Z,43.93
2018-02-09T09:21:49.641Z,47.73
2018-02-09T09:24:17.216Z,53.00
2018-02-09T09:26:45.582Z,46.73
2018-02-09T09:29:13.144Z,52.63
2018-02-09T09:31:40.730Z,58.90
2018-02-09T09:34:09.073Z,60.90
2018-02-09T09:36:36.655Z,57.27
2018-02-09T09:39:04.991Z,54.67
2018-02-09T09:41:32.579Z,55.03
2018-02-09T09:44:00.164Z,54.70
2018-02-09T09:46:27.745Z,54.57
2018-02-09T09:48:55.318Z,51.53
2018-02-09T09:51:22.900Z,54.43
2018-02-09T09:53:50.474Z,46.43
2018-02-09T09:56:18.066Z,51.90
2018-02-09T09:58:45.639Z,48.80
2018-02-09T10:01:18.774Z,57.10
2018-02-09T10:03:46.345Z,45.67
2018-02-09T10:06:13.933Z,44.43
2018-02-09T10:08:41.510Z,50.23
2018-02-09T10:11:09.092Z,56.40
2018-02-09T10:13:36.692Z,52.57
2018-02-09T10:16:04.252Z,47.43
2018-02-09T10:18:32.606Z,55.00
2018-02-09T10:21:00.181Z,59.63
2018-02-09T10:23:27.845Z,39.30
2018-02-09T10:25:56.172Z,44.47
2018-02-09T10:28:23.752Z,47.17
2018-02-09T10:30:51.316Z,47.00
2018-02-09T10:33:18.908Z,56.03
2018-02-09T10:35:47.240Z,49.03
2018-02-09T10:38:14.828Z,45.53
2018-02-09T10:40:42.397Z,49.50
2018-02-09T10:43:09.980Z,48.93
2018-02-09T10:45:37.545Z,47.70
2018-02-09T10:48:05.137Z,40.50
2018-02-09T10:50:32.701Z,41.77
2018-02-09T10:53:00.284Z,35.73
2018-02-09T10:55:27.849Z,40.07
2018-02-09T10:57:56.209Z,50.60
2018-02-09T11:00:29.351Z,43.10
2018-02-09T11:02:56.932Z,33.80
2018-02-09T11:05:24.507Z,36.50
2018-02-09T11:07:52.138Z,38.20
2018-02-09T11:10:25.412Z,42.10
2018-02-09T11:12:53.006Z,41.00
2018-02-09T11:15:20.577Z,35.03
2018-02-09T11:17:48.933Z,30.27
2018-02-09T11:20:17.520Z,34.27
2018-02-09T11:22:45.125Z,30.87
2018-02-09T11:25:12.691Z,40.37
2018-02-09T11:27:41.046Z,43.20
2018-02-09T11:30:09.333Z,43.20
2018-02-09T11:32:36.896Z,26.50
2018-02-09T11:35:05.248Z,32.00
2018-02-09T11:37:32.815Z,31.10
2018-02-09T11:40:00.404Z,33.33
2018-02-09T11:42:28.781Z,37.90
2018-02-09T11:44:57.150Z,30.73
2018-02-09T11:47:24.708Z,27.93
2018-02-09T11:49:53.059Z,51.97
2018-02-09T11:52:20.638Z,29.27
2018-02-09T11:54:48.224Z,25.70
2018-02-09T11:57:15.780Z,30.93
2018-02-09T11:59:43.360Z,32.50
2018-02-09T12:02:10.932Z,34.50
2018-02-09T12:04:38.530Z,24.33
2018-02-09T12:07:06.861Z,27.67
2018-02-09T12:09:34.444Z,26.17
2018-02-09T12:12:02.832Z,29.10
2018-02-09T12:14:30.421Z,29.97
2018-02-09T12:16:58.756Z,28.30
2018-02-09T12:19:26.921Z,30.07
2018-02-09T12:21:54.499Z,27.93
2018-02-09T12:24:22.096Z,25.53
2018-02-09T12:26:49.670Z,29.20
2018-02-09T12:29:17.524Z,26.33
2018-02-09T12:31:45.280Z,25.60
2018-02-09T12:34:12.845Z,27.53
2018-02-09T12:36:40.434Z,25.70
2018-02-09T12:39:07.999Z,27.00
2018-02-09T12:41:35.583Z,23.87
2018-02-09T12:44:03.141Z,30.47
2018-02-09T12:46:30.727Z,31.50
2018-02-09T12:48:59.065Z,27.40
2018-02-09T12:51:26.653Z,30.83
2018-02-09T12:53:54.216Z,27.40
2018-02-09T12:56:21.802Z,31.23
2018-02-09T12:58:49.648Z,27.20
2018-02-09T13:01:17.245Z,28.60
2018-02-09T13:03:44.804Z,30.20
2018-02-09T13:06:12.389Z,32.47
2018-02-09T13:08:39.944Z,29.40
2018-02-09T13:11:08.266Z,24.73
2018-02-09T13:13:35.837Z,28.90
2018-02-09T13:16:03.432Z,41.90
2018-02-09T13:18:42.710Z,38.43
2018-02-09T13:21:11.069Z,41.70
2018-02-09T13:23:50.925Z,50.23
2018-02-09T13:26:18.508Z,49.43
2018-02-09T13:28:57.819Z,50.53
2018-02-09T13:31:25.404Z,57.03
2018-02-09T13:33:52.970Z,57.27
2018-02-09T13:36:32.397Z,53.83
2018-02-09T13:39:00.026Z,50.37
2018-02-09T13:41:27.602Z,49.40
2018-02-09T13:43:55.936Z,57.73
2018-02-09T13:46:23.524Z,54.47
2018-02-09T13:48:51.094Z,55.27
2018-02-09T13:51:18.667Z,59.23
2018-02-09T13:53:49.116Z,67.83
2018-02-09T13:56:16.685Z,62.60
2018-02-09T13:58:44.267Z,67.87
2018-02-09T14:01:11.841Z,68.87
2018-02-09T14:03:40.221Z,67.10
2018-02-09T14:06:07.828Z,69.47
2018-02-09T14:08:35.418Z,65.77
2018-02-09T14:11:03.042Z,69.50
2018-02-09T14:13:30.620Z,63.30
2018-02-09T14:15:58.185Z,69.57
2018-02-09T14:18:25.774Z,67.90
2018-02-09T14:20:53.349Z,74.03
2018-02-09T14:23:21.696Z,77.40
2018-02-09T14:25:49.265Z,74.57
2018-02-09T14:28:17.426Z,64.93
2018-02-09T14:30:45.010Z,69.83
2018-02-09T14:33:13.373Z,69.63
2018-02-09T14:35:40.936Z,69.43
2018-02-09T14:38:08.530Z,67.10
2018-02-09T14:40:36.092Z,67.97
2018-02-09T14:43:03.685Z,63.33
2018-02-09T14:45:31.248Z,72.20
2018-02-09T14:47:58.841Z,64.60
2018-02-09T14:50:26.404Z,72.70
2018-02-09T14:52:53.993Z,63.97
2018-02-09T14:55:21.562Z,70.43
2018-02-09T14:57:49.168Z,70.83
2018-02-09T15:00:16.754Z,67.10
2018-02-09T15:02:44.438Z,76.03
2018-02-09T15:05:12.080Z,76.10
2018-02-09T15:07:39.652Z,75.27
2018-02-09T15:10:07.241Z,70.13
2018-02-09T15:12:34.809Z,66.07
2018-02-09T15:15:02.417Z,69.63
2018-02-09T15:17:29.991Z,74.97
2018-02-09T15:19:57.590Z,83.80
2018-02-09T15:22:25.372Z,75.53
2018-02-09T15:24:52.988Z,84.27
2018-02-09T15:27:20.552Z,72.37
2018-02-09T15:29:48.144Z,67.27
2018-02-09T15:32:15.712Z,74.67
2018-02-09T15:34:44.069Z,69.43
2018-02-09T15:37:11.646Z,71.47
2018-02-09T15:39:39.231Z,72.37
2018-02-09T15:42:06.989Z,77.67
2018-02-09T15:44:34.783Z,75.33
2018-02-09T15:47:02.388Z,68.83
2018-02-09T15:49:29.972Z,78.87
2018-02-09T15:51:57.577Z,77.50
2018-02-09T15:54:25.173Z,80.17
2018-02-09T15:56:52.734Z,78.53
2018-02-09T15:59:21.108Z,79.47
2018-02-09T16:01:48.696Z,74.87
2018-02-09T16:04:16.264Z,73.30
2018-02-09T16:06:43.844Z,74.53
2018-02-09T16:09:11.413Z,83.10
2018-02-09T16:11:39.009Z,77.70
2018-02-09T16:14:07.340Z,79.70
2018-02-09T16:16:34.933Z,75.47
2018-02-09T16:19:02.525Z,76.00
2018-02-09T16:21:30.109Z,78.23
2018-02-09T16:23:57.681Z,77.57
2018-02-09T16:26:26.221Z,77.53
2018-02-09T16:28:54.534Z,63.17
2018-02-09T16:31:22.115Z,75.33
2018-02-09T16:33:53.315Z,65.33
2018-02-09T16:36:20.965Z,62.33
2018-02-09T16:38:48.540Z,64.63
2018-02-09T16:41:16.129Z,56.07
2018-02-09T16:43:43.692Z,66.40
2018-02-09T16:46:11.310Z,66.37
2018-02-09T16:48:38.880Z,87.77
2018-02-09T16:51:06.472Z,76.70
2018-02-09T16:53:34.037Z,72.57
2018-02-09T16:56:01.625Z,67.20
2018-02-09T16:58:29.961Z,69.47
2018-02-09T17:00:57.552Z,79.57
2018-02-09T17:03:25.120Z,81.87
2018-02-09T17:05:52.728Z,79.33
2018-02-09T17:08:20.302Z,70.10
2018-02-09T17:10:47.892Z,75.63
2018-02-09T17:13:16.513Z,71.80
2018-02-09T17:15:44.133Z,72.57
2018-02-09T17:18:11.722Z,66.87
2018-02-09T17:20:39.297Z,74.93
2018-02-09T17:23:06.888Z,80.53
2018-02-09T17:25:34.460Z,69.73
2018-02-09T17:28:02.357Z,68.47
2018-02-09T17:30:29.924Z,67.27
2018-02-09T17:32:57.517Z,68.00
2018-02-09T17:35:25.085Z,64.33
2018-02-09T17:37:52.692Z,76.00
2018-02-09T17:40:20.255Z,58.13
2018-02-09T17:42:47.845Z,67.77
2018-02-09T17:45:15.421Z,65.40
2018-02-09T17:47:43.014Z,68.40
2018-02-09T17:50:11.345Z,68.40
2018-02-09T17:52:38.933Z,61.60
2018-02-09T17:55:06.541Z,91.50
2018-02-09T17:57:34.131Z,58.70
2018-02-09T18:00:01.748Z,63.03
2018-02-09T18:02:29.302Z,50.77
2018-02-09T18:04:56.874Z,56.00
2018-02-09T18:07:24.477Z,56.30
2018-02-09T18:09:52.046Z,57.23
2018-02-09T18:12:19.637Z,55.23
2018-02-09T18:14:47.409Z,54.73
2018-02-09T18:17:15.048Z,54.73
2018-02-09T18:19:42.600Z,50.70
2018-02-09T18:22:13.061Z,46.37
2018-02-09T18:24:41.255Z,56.43
2018-02-09T18:27:08.833Z,50.77
2018-02-09T18:29:36.425Z,51.17
2018-02-09T18:32:04.002Z,54.17
2018-02-09T18:34:31.592Z,56.10
2018-02-09T18:36:59.635Z,46.33
2018-02-09T18:39:27.453Z,47.80
2018-02-09T18:41:55.021Z,42.40
2018-02-09T18:44:22.617Z,43.37
2018-02-09T18:46:50.246Z,49.03
2018-02-09T18:49:17.812Z,42.20
2018-02-09T18:51:45.381Z,48.40
2018-02-09T18:54:12.965Z,44.20
2018-02-09T18:56:40.940Z,42.20
2018-02-09T18:59:09.357Z,47.70
2018-02-09T19:01:36.932Z,43.70
2018-02-09T19:04:04.517Z,52.67
2018-02-09T19:06:32.115Z,47.57
2018-02-09T19:08:59.708Z,60.77
2018-02-09T19:11:27.272Z,67.33
2018-02-09T19:13:55.633Z,63.70
2018-02-09T19:16:23.205Z,74.63
2018-02-09T19:18:50.791Z,49.20
2018-02-09T19:21:18.360Z,64.70
2018-02-09T19:23:45.946Z,76.50
2018-02-09T19:26:13.508Z,74.40
2018-02-09T19:28:41.101Z,57.60
2018-02-09T19:31:09.136Z,65.30
2018-02-09T19:33:36.798Z,41.50
2018-02-09T19:36:04.369Z,41.40
2018-02-09T19:38:32.092Z,42.13
2018-02-09T19:40:59.737Z,40.70
2018-02-09T19:43:27.318Z,41.70
2018-02-09T19:45:55.025Z,40.33
2018-02-09T19:48:22.658Z,39.03
2018-02-09T19:50:52.164Z,36.87
2018-02-09T19:53:19.769Z,38.40
2018-02-09T19:55:47.356Z,39.30
2018-02-09T19:58:14.926Z,35.37
2018-02-09T20:00:42.508Z,35.07
2018-02-09T20:03:18.177Z,38.53
2018-02-09T20:05:45.769Z,40.13
2018-02-09T20:08:13.330Z,41.30
2018-02-09T20:10:42.176Z,37.47
2018-02-09T20:13:11.462Z,35.67
2018-02-09T20:15:39.921Z,39.77
2018-02-09T20:18:07.577Z,34.77
2018-02-09T20:20:35.251Z,39.53
2018-02-09T20:23:02.828Z,32.47
2018-02-09T20:25:30.425Z,39.80
2018-02-09T20:27:58.003Z,180.50
2018-02-09T20:30:26.102Z,66.37
2018-02-09T20:32:54.295Z,51.23
2018-02-09T20:35:21.909Z,61.10
2018-02-09T20:37:49.795Z,56.80
2018-02-09T20:40:17.428Z,43.50
2018-02-09T20:42:45.036Z,279.47
2018-02-09T20:45:12.847Z,209.57
2018-02-09T20:47:40.413Z,74.90
2018-02-09T20:50:08.017Z,54.33
2018-02-09T20:52:35.590Z,78.40
2018-02-09T20:55:03.181Z,39.20
2018-02-09T20:57:31.483Z,38.33
2018-02-09T20:59:59.096Z,55.47
2018-02-09T21:02:26.762Z,57.73
2018-02-09T21:04:55.106Z,43.60
2018-02-09T21:07:23.495Z,49.97
2018-02-09T21:09:51.086Z,62.13
2018-02-09T21:12:18.737Z,62.70
2018-02-09T21:14:47.080Z,52.57
2018-02-09T21:17:14.792Z,56.30
2018-02-09T21:19:42.424Z,66.33
2018-02-09T21:22:10.021Z,43.83
2018-02-09T21:24:37.590Z,40.57
2018-02-09T21:27:05.668Z,38.10
2018-02-09T21:29:33.272Z,34.20
2018-02-09T21:32:01.290Z,34.93
2018-02-09T21:34:28.864Z,54.23
2018-02-09T21:36:56.461Z,44.00
2018-02-09T21:39:24.057Z,42.70
2018-02-09T21:41:51.653Z,46.67
2018-02-09T21:44:19.230Z,49.07
2018-02-09T21:46:46.811Z,44.53
2018-02-09T21:49:14.377Z,43.53
2018-02-09T21:51:41.978Z,41.93
2018-02-09T21:54:09.540Z,44.80
2018-02-09T21:56:37.133Z,41.93
2018-02-09T21:59:04.700Z,34.40
2018-02-09T22:01:33.063Z,32.77
2018-02-09T22:04:00.637Z,36.70
2018-02-09T22:06:28.205Z,51.20
2018-02-09T22:08:55.791Z,36.13
2018-02-09T22:11:23.357Z,32.67
2018-02-09T22:13:50.937Z,43.20
2018-02-09T22:16:18.515Z,39.87
2018-02-09T22:18:46.104Z,39.10
2018-02-09T22:21:14.437Z,39.03
2018-02-09T22:23:42.789Z,36.63
2018-02-09T22:26:10.348Z,37.60
2018-02-09T22:28:37.937Z,56.43
2018-02-09T22:31:05.511Z,35.70
2018-02-09T22:33:33.095Z,30.77
2018-02-09T22:36:01.426Z,38.50
2018-02-09T22:38:29.021Z,37.00
2018-02-09T22:40:57.363Z,35.97
2018-02-09T22:43:24.953Z,40.77
2018-02-09T22:45:52.520Z,37.97
2018-02-09T22:48:20.874Z,38.57
2018-02-09T22:50:49.189Z,37.60
2018-02-09T22:53:16.782Z,34.13
2018-02-09T22:55:44.348Z,37.53
2018-02-09T22:58:11.942Z,44.33
2018-02-09T23:00:40.284Z,48.23
2018-02-09T23:03:07.873Z,37.70
2018-02-09T23:05:35.437Z,44.23
2018-02-09T23:08:03.064Z,34.10
2018-02-09T23:10:30.638Z,34.10
2018-02-09T23:12:58.210Z,40.63
2018-02-09T23:15:26.573Z,43.37
2018-02-09T23:17:54.140Z,39.80
2018-02-09T23:20:21.757Z,39.63
2018-02-09T23:22:49.333Z,33.57
2018-02-09T23:25:16.920Z,37.90
2018-02-09T23:27:44.489Z,35.40
2018-02-09T23:30:19.594Z,49.63
2018-02-09T23:32:47.162Z,40.60
2018-02-09T23:35:14.748Z,43.90
2018-02-09T23:37:42.308Z,34.87
2018-02-09T23:40:10.655Z,39.60
2018-02-09T23:42:38.219Z,38.67
2018-02-09T23:45:05.800Z,36.43
2018-02-09T23:47:33.360Z,40.90
2018-02-09T23:50:01.716Z,61.80
2018-02-09T23:52:29.290Z,46.87
2018-02-09T23:54:56.885Z,53.67
2018-02-09T23:57:24.452Z,55.10
2018-02-09T23:59:52.032Z,49.40
